Time;durP1;ratioP1;P1;durP2;ratioP2;P2;SDS_P1;SDS_P2;PMS_P1;PMS_P2;Temp;Humidity;BMP_temperature;BMP_pressure;BME280_temperature;BME280_humidity;BME280_pressure;Samples;Min_cycle;Max_cycle;Signal;HPM_P1;HPM_P2
2022/04/05 00:01:42;;;;;;;8.68;4.75;;;1.00;99.90;;;;;;5031178;28;20036;-90
2022/04/05 00:04:10;;;;;;;11.32;5.85;;;1.00;99.90;;;;;;5041785;28;20117;-90
2022/04/05 00:06:36;;;;;;;11.50;5.97;;;1.00;99.90;;;;;;5035043;28;20025;-89
2022/04/05 00:09:01;;;;;;;13.80;6.32;;;0.90;99.90;;;;;;5017195;28;20022;-90
2022/04/05 00:11:27;;;;;;;14.57;7.82;;;0.90;99.90;;;;;;5038766;28;20036;-90
2022/04/05 00:13:53;;;;;;;9.88;4.90;;;1.00;99.90;;;;;;5034376;28;20134;-91
2022/04/05 00:16:19;;;;;;;10.82;6.75;;;1.10;99.90;;;;;;5037290;28;20114;-91
2022/04/05 00:18:45;;;;;;;14.70;5.93;;;1.10;99.90;;;;;;5048476;28;20033;-91
2022/04/05 00:21:10;;;;;;;17.27;7.50;;;1.10;99.90;;;;;;5050160;28;20040;-91
2022/04/05 00:23:36;;;;;;;17.38;9.23;;;1.10;99.90;;;;;;5043476;28;20361;-91
2022/04/05 00:26:02;;;;;;;13.40;6.18;;;1.10;99.90;;;;;;5044127;28;20057;-90
2022/04/05 00:28:27;;;;;;;12.88;6.53;;;1.10;99.90;;;;;;5038010;28;20029;-90
2022/04/05 00:30:53;;;;;;;13.98;6.47;;;1.10;99.90;;;;;;5032823;28;20037;-91
2022/04/05 00:33:19;;;;;;;13.23;7.22;;;1.20;99.90;;;;;;5037652;28;20041;-91
2022/04/05 00:35:45;;;;;;;12.43;5.93;;;1.20;99.90;;;;;;5029111;28;20033;-91
2022/04/05 00:38:11;;;;;;;10.77;5.60;;;1.20;99.90;;;;;;5037540;28;20488;-91
2022/04/05 00:40:37;;;;;;;11.10;5.43;;;1.30;99.90;;;;;;5036649;28;20071;-91
2022/04/05 00:43:06;;;;;;;13.45;6.50;;;1.30;99.90;;;;;;5044940;28;20025;-91
2022/04/05 00:45:33;;;;;;;14.07;7.22;;;1.30;99.90;;;;;;5039655;28;20026;-91
2022/04/05 00:47:59;;;;;;;15.10;7.82;;;1.30;99.90;;;;;;5046359;28;20017;-90
2022/04/05 00:50:27;;;;;;;14.00;6.45;;;1.30;99.90;;;;;;5041214;28;20030;-90
2022/04/05 00:52:54;;;;;;;13.93;6.35;;;1.30;99.90;;;;;;5040429;28;20028;-92
2022/04/05 00:55:22;;;;;;;17.95;7.75;;;1.40;99.90;;;;;;5037829;28;20033;-92
2022/04/05 00:57:53;;;;;;;16.23;6.55;;;1.40;99.90;;;;;;5042434;28;20037;-91
2022/04/05 01:00:19;;;;;;;12.10;6.35;;;1.40;99.90;;;;;;5034440;28;20153;-90
2022/04/05 01:02:48;;;;;;;11.18;5.03;;;1.40;99.90;;;;;;5039127;28;20136;-92
2022/04/05 01:05:19;;;;;;;12.45;6.57;;;1.40;99.90;;;;;;5016174;28;20034;-90
2022/04/05 01:07:49;;;;;;;15.20;6.32;;;1.50;99.90;;;;;;5037629;28;20112;-91
2022/04/05 01:10:15;;;;;;;11.83;6.63;;;1.50;99.90;;;;;;5045752;28;20025;-90
2022/04/05 01:12:41;;;;;;;12.93;5.88;;;1.50;99.90;;;;;;5034687;28;20100;-90
2022/04/05 01:15:07;;;;;;;12.73;6.95;;;1.50;99.90;;;;;;5040874;28;20033;-90
2022/04/05 01:17:34;;;;;;;11.43;6.55;;;1.40;99.90;;;;;;5039601;28;20543;-90
2022/04/05 01:20:01;;;;;;;13.52;6.78;;;1.40;99.90;;;;;;5035245;28;20025;-90
2022/04/05 01:22:26;;;;;;;12.55;6.57;;;1.40;99.90;;;;;;5041033;28;20037;-89
2022/04/05 01:24:52;;;;;;;11.07;5.70;;;1.40;99.90;;;;;;5020328;28;20032;-90
2022/04/05 01:27:19;;;;;;;13.48;6.50;;;1.50;99.90;;;;;;5039125;28;20461;-90
2022/04/05 01:29:46;;;;;;;6.88;3.75;;;1.50;99.90;;;;;;5039346;28;20017;-90
2022/04/05 01:32:11;;;;;;;10.52;6.20;;;1.50;99.90;;;;;;5031422;28;20061;-89
2022/04/05 01:34:39;;;;;;;9.85;5.35;;;1.50;99.90;;;;;;5038003;28;20030;-90
2022/04/05 01:37:08;;;;;;;12.85;5.30;;;1.50;99.90;;;;;;5031154;28;20037;-90
2022/04/05 01:39:36;;;;;;;10.93;5.25;;;1.50;99.90;;;;;;5032389;28;20029;-89
2022/04/05 01:42:07;;;;;;;9.60;4.97;;;1.50;99.90;;;;;;5044930;28;20457;-90
2022/04/05 01:44:33;;;;;;;;;;;1.50;99.90;;;;;;5030579;28;20049;-89
2022/04/05 01:47:11;;;;;;;10.35;4.63;;;1.50;99.90;;;;;;5042862;28;19919;-89
2022/04/05 01:49:38;;;;;;;10.30;6.00;;;1.50;99.90;;;;;;5040879;28;20025;-89
2022/04/05 01:52:04;;;;;;;8.68;4.85;;;1.50;99.90;;;;;;5041133;28;20022;-89
2022/04/05 01:54:30;;;;;;;14.88;5.53;;;1.50;99.90;;;;;;5037981;28;20341;-89
2022/04/05 01:56:56;;;;;;;14.23;7.95;;;1.50;99.90;;;;;;5037056;28;20053;-88
2022/04/05 01:59:27;;;;;;;10.07;5.45;;;1.50;99.90;;;;;;5045349;28;20040;-89
2022/04/05 02:01:53;;;;;;;9.93;5.63;;;1.50;99.90;;;;;;5039788;28;20045;-89
2022/04/05 02:04:19;;;;;;;10.82;7.03;;;1.50;99.90;;;;;;5039655;28;20496;-88
2022/04/05 02:06:45;;;;;;;10.60;6.05;;;1.50;99.90;;;;;;5036685;28;20123;-88
2022/04/05 02:09:15;;;;;;;11.77;5.22;;;1.50;99.90;;;;;;5039221;28;20028;-88
2022/04/05 02:11:46;;;;;;;12.77;8.27;;;1.60;99.90;;;;;;5037624;28;20101;-88
2022/04/05 02:14:12;;;;;;;;;;;1.60;99.90;;;;;;5048349;28;20278;-89
2022/04/05 02:16:39;;;;;;;8.48;5.57;;;1.60;99.90;;;;;;5041097;28;20010;-88
2022/04/05 02:19:04;;;;;;;13.52;5.47;;;1.60;99.90;;;;;;5034552;28;20472;-88
2022/04/05 02:21:30;;;;;;;7.82;4.32;;;1.60;99.90;;;;;;5040889;28;20036;-88
2022/04/05 02:23:56;;;;;;;9.77;4.95;;;1.60;99.90;;;;;;5053529;28;20040;-89
2022/04/05 02:26:21;;;;;;;9.00;5.75;;;1.60;99.90;;;;;;5042626;28;20033;-88
2022/04/05 02:28:48;;;;;;;9.73;5.45;;;1.60;99.90;;;;;;5038651;28;20063;-88
2022/04/05 02:31:14;;;;;;;11.07;4.97;;;1.60;99.90;;;;;;5042033;28;20037;-88
2022/04/05 02:33:40;;;;;;;8.80;6.00;;;1.60;99.90;;;;;;5037324;28;20048;-88
2022/04/05 02:36:07;;;;;;;10.10;5.25;;;1.40;99.90;;;;;;5027077;28;20042;-88
2022/04/05 02:38:33;;;;;;;14.02;4.85;;;1.50;99.90;;;;;;5039801;28;20030;-87
2022/04/05 02:40:59;;;;;;;8.02;4.90;;;1.40;99.90;;;;;;5040190;28;20276;-89
2022/04/05 02:43:25;;;;;;;9.65;5.75;;;1.30;99.90;;;;;;5031393;28;20064;-89
2022/04/05 02:45:55;;;;;;;18.65;6.40;;;1.30;99.90;;;;;;5029059;28;20033;-89
2022/04/05 02:48:23;;;;;;;13.80;7.28;;;1.30;99.90;;;;;;5052201;28;20028;-89
2022/04/05 02:50:50;;;;;;;11.70;6.75;;;1.20;99.90;;;;;;5043444;28;20029;-87
2022/04/05 02:53:15;;;;;;;12.20;7.93;;;1.10;99.90;;;;;;5044574;28;20052;-89
2022/04/05 02:55:42;;;;;;;10.98;5.32;;;1.20;99.90;;;;;;5044372;28;20472;-88
2022/04/05 02:58:08;;;;;;;10.75;5.30;;;1.20;99.90;;;;;;5044369;28;20546;-89
2022/04/05 03:00:34;;;;;;;15.15;6.97;;;1.00;99.90;;;;;;5034083;28;20056;-88
2022/04/05 03:02:59;;;;;;;10.65;7.50;;;1.00;99.90;;;;;;5036233;28;20555;-89
2022/04/05 03:05:25;;;;;;;13.02;8.35;;;0.90;99.90;;;;;;5041783;28;20511;-89
2022/04/05 03:07:51;;;;;;;17.55;8.05;;;0.90;99.90;;;;;;5045521;28;20571;-91
2022/04/05 03:10:16;;;;;;;13.15;7.38;;;1.10;99.90;;;;;;5043852;28;20040;-89
2022/04/05 03:12:42;;;;;;;16.20;9.10;;;1.00;99.90;;;;;;5043669;28;20024;-90
2022/04/05 03:15:09;;;;;;;13.60;7.45;;;1.10;99.90;;;;;;5041794;28;20104;-88
2022/04/05 03:17:40;;;;;;;11.35;7.72;;;1.10;99.90;;;;;;5034696;28;20102;-89
2022/04/05 03:20:06;;;;;;;13.35;8.38;;;1.10;99.90;;;;;;5045835;28;20550;-89
2022/04/05 03:22:32;;;;;;;12.15;7.28;;;1.00;99.90;;;;;;5042586;28;20060;-89
2022/04/05 03:24:58;;;;;;;15.77;7.20;;;1.00;99.90;;;;;;5034769;28;20034;-90
2022/04/05 03:27:23;;;;;;;13.70;7.28;;;1.00;99.90;;;;;;5046806;28;20086;-89
2022/04/05 03:29:49;;;;;;;16.73;9.20;;;1.00;99.90;;;;;;5037359;28;20044;-89
2022/04/05 03:32:15;;;;;;;15.57;9.10;;;1.00;99.90;;;;;;5051376;28;20037;-90
2022/04/05 03:34:40;;;;;;;13.32;7.07;;;1.00;99.90;;;;;;5042021;28;20060;-89
2022/04/05 03:37:07;;;;;;;14.00;7.15;;;0.90;99.90;;;;;;5037853;28;20033;-89
2022/04/05 03:39:33;;;;;;;15.93;8.25;;;1.00;99.90;;;;;;5035339;28;20087;-89
2022/04/05 03:41:59;;;;;;;14.90;8.57;;;1.00;99.90;;;;;;5041937;28;20061;-89
2022/04/05 03:44:25;;;;;;;14.73;8.70;;;1.00;99.90;;;;;;5040813;28;20063;-89
2022/04/05 03:46:52;;;;;;;16.83;9.40;;;1.00;99.90;;;;;;5026562;28;20021;-89
2022/04/05 03:49:18;;;;;;;13.55;9.20;;;1.00;99.90;;;;;;5050321;28;20051;-89
2022/04/05 03:51:44;;;;;;;15.10;7.90;;;0.90;99.90;;;;;;5037471;28;20322;-90
2022/04/05 03:54:09;;;;;;;12.77;8.48;;;0.90;99.90;;;;;;5042318;28;20518;-89
2022/04/05 03:56:35;;;;;;;29.08;10.70;;;0.90;99.90;;;;;;5042280;28;20036;-89
2022/04/05 03:59:01;;;;;;;21.83;10.02;;;0.90;99.90;;;;;;5042331;28;20126;-89
2022/04/05 04:01:27;;;;;;;16.20;8.13;;;0.90;99.90;;;;;;5040365;28;20438;-88
2022/04/05 04:03:52;;;;;;;16.08;8.85;;;0.90;99.90;;;;;;5033953;28;20751;-89
2022/04/05 04:06:18;;;;;;;17.48;7.97;;;0.90;99.90;;;;;;5041017;28;20102;-88
2022/04/05 04:08:43;;;;;;;15.85;7.97;;;0.90;99.90;;;;;;5034698;28;20472;-88
2022/04/05 04:11:09;;;;;;;15.63;8.55;;;0.90;99.90;;;;;;5040773;28;20034;-89
2022/04/05 04:13:35;;;;;;;16.67;9.07;;;0.80;99.90;;;;;;5025100;28;20074;-88
2022/04/05 04:16:01;;;;;;;15.20;8.68;;;0.90;99.90;;;;;;5037195;28;20713;-88
2022/04/05 04:18:27;;;;;;;14.38;8.60;;;1.00;99.90;;;;;;5027854;28;20149;-89
2022/04/05 04:20:52;;;;;;;17.00;8.35;;;0.90;99.90;;;;;;5034767;28;20030;-90
2022/04/05 04:23:19;;;;;;;18.58;9.23;;;0.90;99.90;;;;;;5039450;28;20034;-90
2022/04/05 04:25:45;;;;;;;13.95;8.10;;;0.90;99.90;;;;;;5036093;28;20032;-90
2022/04/05 04:28:11;;;;;;;18.65;10.48;;;1.00;99.90;;;;;;5045363;28;20134;-90
2022/04/05 04:30:38;;;;;;;15.68;9.07;;;1.00;99.90;;;;;;5043283;28;20033;-89
2022/04/05 04:33:06;;;;;;;21.83;10.93;;;1.00;99.90;;;;;;5020594;28;20029;-90
2022/04/05 04:35:32;;;;;;;17.80;9.93;;;1.00;99.90;;;;;;5019322;28;20025;-90
2022/04/05 04:38:01;;;;;;;24.63;12.50;;;1.00;99.90;;;;;;5022935;28;20481;-90
2022/04/05 04:40:26;;;;;;;18.15;10.32;;;1.00;99.90;;;;;;5036235;28;20060;-89
2022/04/05 04:42:52;;;;;;;15.77;10.50;;;1.00;99.90;;;;;;5042768;28;20033;-89
2022/04/05 04:45:18;;;;;;;19.02;11.88;;;1.00;99.90;;;;;;5049006;28;20487;-88
2022/04/05 04:47:44;;;;;;;23.52;10.73;;;1.10;99.90;;;;;;5037345;28;20427;-89
2022/04/05 04:50:13;;;;;;;17.40;9.05;;;1.20;99.90;;;;;;5038151;28;20438;-89
2022/04/05 04:52:39;;;;;;;20.35;9.90;;;1.10;99.90;;;;;;5039335;28;20476;-88
2022/04/05 04:55:06;;;;;;;15.15;8.65;;;1.10;99.90;;;;;;5026721;28;20030;-90
2022/04/05 04:57:32;;;;;;;18.02;8.82;;;1.20;99.90;;;;;;5035565;28;20054;-89
2022/04/05 04:59:57;;;;;;;19.73;8.93;;;1.20;99.90;;;;;;5042646;28;20095;-89
2022/04/05 05:02:23;;;;;;;19.15;9.48;;;1.20;99.90;;;;;;5044710;28;20044;-88
2022/04/05 05:04:52;;;;;;;18.92;9.68;;;1.20;99.90;;;;;;5069117;28;20079;-89
2022/04/05 05:07:18;;;;;;;20.25;11.10;;;1.20;99.90;;;;;;5019119;28;20045;-89
2022/04/05 05:09:44;;;;;;;16.60;10.05;;;1.20;99.90;;;;;;5021506;28;20500;-89
2022/04/05 05:12:10;;;;;;;15.50;10.25;;;1.30;99.90;;;;;;5025122;28;20109;-89
2022/04/05 05:14:37;;;;;;;12.65;8.05;;;1.30;99.90;;;;;;5022311;28;20026;-89
2022/04/05 05:17:03;;;;;;;15.50;9.18;;;1.30;99.90;;;;;;5031191;28;20038;-88
2022/04/05 05:19:29;;;;;;;19.45;10.38;;;1.30;99.90;;;;;;5025779;28;20030;-91
2022/04/05 05:21:55;;;;;;;19.48;11.73;;;1.30;99.90;;;;;;5028516;28;20539;-91
2022/04/05 05:24:20;;;;;;;16.67;8.88;;;1.20;99.90;;;;;;5021946;28;20033;-90
2022/04/05 05:26:46;;;;;;;18.15;10.25;;;1.30;99.90;;;;;;5023065;28;20044;-92
2022/04/05 05:29:12;;;;;;;18.27;10.63;;;1.30;99.90;;;;;;5015932;28;20355;-93
2022/04/05 05:31:38;;;;;;;20.90;8.40;;;1.30;99.90;;;;;;5036329;28;20119;-92
2022/04/05 05:34:04;;;;;;;17.80;10.57;;;1.30;99.90;;;;;;5032163;28;20029;-92
2022/04/05 05:36:30;;;;;;;18.20;11.55;;;1.30;99.90;;;;;;5053112;28;20140;-92
2022/04/05 05:38:56;;;;;;;19.50;11.13;;;1.30;99.90;;;;;;5044282;28;20091;-94
2022/04/05 05:41:21;;;;;;;15.23;9.05;;;1.30;99.90;;;;;;5033009;28;20053;-94
2022/04/05 05:43:50;;;;;;;18.05;11.52;;;1.30;99.90;;;;;;5046995;28;20048;-92
2022/04/05 05:46:16;;;;;;;16.13;8.80;;;1.40;99.90;;;;;;5034958;28;20084;-93
2022/04/05 05:48:42;;;;;;;16.48;10.40;;;1.30;99.90;;;;;;5035606;28;20170;-93
2022/04/05 05:51:08;;;;;;;17.95;9.15;;;1.40;99.90;;;;;;5016345;28;20026;-92
2022/04/05 05:53:34;;;;;;;14.75;9.02;;;1.30;99.90;;;;;;5036231;28;20108;-92
2022/04/05 05:56:00;;;;;;;16.70;11.02;;;1.30;99.90;;;;;;5035550;28;20030;-92
2022/04/05 05:58:27;;;;;;;19.13;10.00;;;1.30;99.90;;;;;;5041391;28;20087;-92
2022/04/05 06:00:52;;;;;;;14.85;8.88;;;1.30;99.90;;;;;;5042518;28;20037;-92
2022/04/05 06:03:18;;;;;;;15.57;9.82;;;1.30;99.90;;;;;;5039829;28;20033;-91
2022/04/05 06:05:46;;;;;;;17.98;9.70;;;1.40;99.90;;;;;;5034417;28;20116;-91
2022/04/05 06:08:13;;;;;;;15.70;8.32;;;1.40;99.90;;;;;;5040512;28;20029;-91
2022/04/05 06:10:38;;;;;;;14.07;8.18;;;1.30;99.90;;;;;;5046855;28;20025;-91
2022/04/05 06:13:04;;;;;;;12.82;6.90;;;1.30;99.90;;;;;;5024459;28;20269;-91
2022/04/05 06:15:30;;;;;;;15.75;8.38;;;1.40;99.90;;;;;;5032009;28;20060;-91
2022/04/05 06:17:58;;;;;;;13.10;8.07;;;1.30;99.90;;;;;;5016096;28;20026;-91
2022/04/05 06:20:24;;;;;;;13.13;7.63;;;1.40;99.90;;;;;;5045600;28;20060;-91
2022/04/05 06:22:53;;;;;;;13.32;6.80;;;1.40;99.90;;;;;;5044113;28;20024;-91
2022/04/05 06:25:27;;;;;;;18.40;9.25;;;1.50;99.90;;;;;;5040975;28;20075;-92
2022/04/05 06:27:54;;;;;;;14.88;6.97;;;1.50;99.90;;;;;;5038838;28;20021;-91
2022/04/05 06:30:20;;;;;;;17.88;9.20;;;1.60;99.90;;;;;;5034936;28;20388;-90
2022/04/05 06:32:47;;;;;;;14.63;8.50;;;1.60;99.90;;;;;;5031417;28;20041;-90
2022/04/05 06:35:13;;;;;;;12.35;6.57;;;1.60;99.90;;;;;;5033394;28;20018;-91
2022/04/05 06:37:43;;;;;;;17.13;8.95;;;1.70;99.90;;;;;;5023418;28;20112;-90
2022/04/05 06:40:09;;;;;;;13.05;7.50;;;1.70;99.90;;;;;;5018875;28;20038;-91
2022/04/05 06:42:43;;;;;;;13.07;8.63;;;1.70;99.90;;;;;;5022611;28;20052;-90
2022/04/05 06:45:14;;;;;;;19.52;9.85;;;1.80;99.90;;;;;;5020107;28;20017;-90
2022/04/05 06:47:41;;;;;;;12.82;8.40;;;1.80;99.90;;;;;;5037373;28;20025;-91
2022/04/05 06:50:09;;;;;;;14.10;7.85;;;1.80;99.90;;;;;;5033020;28;20102;-90
2022/04/05 06:52:39;;;;;;;23.80;11.07;;;1.80;99.90;;;;;;5016751;28;20052;-91
2022/04/05 06:55:09;;;;;;;16.17;10.20;;;1.80;99.90;;;;;;5027201;28;20230;-91
2022/04/05 06:57:36;;;;;;;16.50;8.85;;;1.90;99.90;;;;;;5028613;28;20091;-91
2022/04/05 07:00:05;;;;;;;15.48;9.57;;;1.90;99.90;;;;;;5018827;28;20029;-87
2022/04/05 07:02:30;;;;;;;17.90;8.85;;;1.90;99.90;;;;;;5053270;28;20028;-89
2022/04/05 07:04:56;;;;;;;15.90;8.82;;;1.90;99.90;;;;;;5040010;28;20026;-89
2022/04/05 07:07:22;;;;;;;13.85;7.97;;;2.00;99.90;;;;;;5036383;28;20040;-89
2022/04/05 07:09:47;;;;;;;16.70;9.70;;;2.00;99.90;;;;;;5036872;28;20033;-89
2022/04/05 07:12:13;;;;;;;15.63;9.02;;;2.10;99.90;;;;;;5019915;28;20389;-89
2022/04/05 07:14:39;;;;;;;11.38;6.55;;;2.20;99.90;;;;;;5023113;28;20025;-88
2022/04/05 07:17:05;;;;;;;13.70;8.05;;;2.20;99.90;;;;;;5072095;28;20025;-89
2022/04/05 07:19:30;;;;;;;14.10;8.05;;;2.30;99.90;;;;;;5042465;28;20127;-88
2022/04/05 07:21:56;;;;;;;13.60;8.38;;;2.40;99.90;;;;;;5057738;28;20036;-89
2022/04/05 07:24:22;;;;;;;16.73;9.13;;;2.40;99.90;;;;;;5033989;28;20032;-90
2022/04/05 07:26:47;;;;;;;15.23;8.63;;;2.40;99.90;;;;;;5034402;28;20029;-88
2022/04/05 07:29:13;;;;;;;15.80;8.57;;;2.40;99.90;;;;;;5051772;28;20063;-87
2022/04/05 07:31:39;;;;;;;18.17;8.68;;;2.40;99.90;;;;;;5056301;28;20029;-89
2022/04/05 07:34:05;;;;;;;17.73;8.15;;;2.40;99.90;;;;;;5051872;28;20040;-88
2022/04/05 07:36:32;;;;;;;15.57;7.97;;;2.40;99.90;;;;;;5043246;28;20036;-89
2022/04/05 07:38:58;;;;;;;13.95;8.65;;;2.50;99.90;;;;;;5029038;28;20041;-88
2022/04/05 07:41:24;;;;;;;13.82;8.50;;;2.50;99.90;;;;;;5042286;28;20056;-88
2022/04/05 07:43:49;;;;;;;14.95;7.97;;;2.50;99.90;;;;;;5031602;28;20028;-88
2022/04/05 07:46:15;;;;;;;13.35;7.25;;;2.60;99.90;;;;;;5053034;28;20049;-87
2022/04/05 07:48:41;;;;;;;13.65;8.50;;;2.60;99.90;;;;;;5022360;28;20026;-87
2022/04/05 07:51:07;;;;;;;20.63;8.23;;;2.60;99.90;;;;;;5034045;28;20462;-88
2022/04/05 07:53:33;;;;;;;12.02;6.10;;;2.60;99.90;;;;;;5032648;28;20033;-89
2022/04/05 07:55:59;;;;;;;15.35;8.15;;;2.70;99.90;;;;;;5032007;28;20025;-87
2022/04/05 07:58:25;;;;;;;14.70;8.25;;;2.70;99.90;;;;;;5032612;28;20087;-87
2022/04/05 08:00:51;;;;;;;13.35;6.93;;;2.70;99.90;;;;;;5035373;28;20033;-88
2022/04/05 08:03:17;;;;;;;11.93;7.47;;;2.70;99.90;;;;;;5047279;28;20606;-86
2022/04/05 08:05:43;;;;;;;13.30;7.25;;;2.70;99.90;;;;;;5036471;28;20431;-86
2022/04/05 08:08:10;;;;;;;13.43;7.07;;;2.80;99.90;;;;;;5011863;28;20026;-87
2022/04/05 08:10:36;;;;;;;21.52;6.93;;;2.80;99.90;;;;;;5018581;28;20039;-86
2022/04/05 08:13:02;;;;;;;16.27;9.43;;;2.80;99.90;;;;;;5046578;28;20435;-87
2022/04/05 08:15:28;;;;;;;12.25;6.82;;;2.80;99.90;;;;;;5030062;28;20042;-86
2022/04/05 08:17:54;;;;;;;13.60;7.05;;;2.80;99.90;;;;;;5080738;28;20047;-85
2022/04/05 08:20:20;;;;;;;13.45;7.63;;;2.80;99.90;;;;;;5034806;28;20060;-86
2022/04/05 08:22:47;;;;;;;12.38;7.15;;;2.90;99.90;;;;;;5036674;28;20461;-87
2022/04/05 08:25:16;;;;;;;12.15;6.82;;;2.80;99.90;;;;;;5032312;28;20025;-85
2022/04/05 08:27:43;;;;;;;15.15;6.65;;;3.00;99.90;;;;;;5051056;28;20013;-86
2022/04/05 08:30:12;;;;;;;13.55;8.52;;;3.00;99.90;;;;;;5012310;28;20025;-86
2022/04/05 08:32:42;;;;;;;10.73;6.93;;;3.00;99.90;;;;;;5039708;28;20038;-87
2022/04/05 08:35:09;;;;;;;15.30;7.57;;;2.90;99.90;;;;;;5033110;28;20033;-88
2022/04/05 08:37:35;;;;;;;11.50;5.78;;;2.90;99.90;;;;;;5010046;28;20030;-84
2022/04/05 08:40:06;;;;;;;12.57;7.75;;;2.90;99.90;;;;;;5024854;28;20053;-86
2022/04/05 08:42:33;;;;;;;14.93;7.72;;;3.00;99.90;;;;;;5047820;28;20034;-86
2022/04/05 08:45:02;;;;;;;13.60;6.88;;;3.00;99.90;;;;;;5032603;28;20081;-86
2022/04/05 08:47:29;;;;;;;13.52;8.13;;;3.10;99.90;;;;;;5022193;28;20053;-87
2022/04/05 08:49:56;;;;;;;14.82;7.97;;;3.10;99.90;;;;;;5044780;28;20022;-86
2022/04/05 08:52:22;;;;;;;11.18;7.03;;;3.10;99.90;;;;;;5034654;28;20026;-86
2022/04/05 08:54:48;;;;;;;12.77;6.70;;;3.20;99.90;;;;;;5045915;28;20033;-86
2022/04/05 08:57:13;;;;;;;12.15;7.00;;;3.20;99.90;;;;;;5040641;28;20059;-86
2022/04/05 08:59:39;;;;;;;14.32;8.10;;;3.20;99.90;;;;;;5022048;28;20029;-86
2022/04/05 09:02:05;;;;;;;14.10;7.55;;;3.30;99.90;;;;;;5020207;28;20041;-85
2022/04/05 09:04:34;;;;;;;10.90;6.47;;;3.50;99.90;;;;;;5044778;28;20029;-86
2022/04/05 09:07:40;;;;;;;13.90;7.70;;;3.60;99.90;;;;;;5033154;28;20105;-85
2022/04/05 09:10:13;;;;;;;15.88;8.15;;;3.70;99.90;;;;;;5042980;28;20100;-86
2022/04/05 09:12:44;;;;;;;13.55;7.47;;;3.70;99.90;;;;;;5027561;28;20115;-87
2022/04/05 09:15:18;;;;;;;14.30;7.63;;;3.70;99.90;;;;;;5034090;28;20489;-85
2022/04/05 09:17:46;;;;;;;16.23;7.53;;;3.60;99.90;;;;;;5032172;28;20075;-87
2022/04/05 09:20:13;;;;;;;18.98;10.75;;;3.70;99.90;;;;;;5028061;28;20110;-87
2022/04/05 09:22:42;;;;;;;16.33;9.15;;;3.70;99.90;;;;;;5032162;28;20099;-86
2022/04/05 09:25:10;;;;;;;15.15;7.28;;;3.70;99.90;;;;;;5040713;28;20028;-87
2022/04/05 09:28:05;;;;;;;16.60;8.82;;;3.80;99.90;;;;;;5014399;28;20376;-85
2022/04/05 09:30:31;;;;;;;15.05;8.50;;;3.90;99.90;;;;;;5038956;28;20037;-87
2022/04/05 09:32:59;;;;;;;13.38;7.20;;;4.10;99.90;;;;;;5054962;28;20024;-86
2022/04/05 09:35:30;;;;;;;13.57;7.97;;;4.00;99.90;;;;;;5051087;28;20032;-86
2022/04/05 09:38:14;;;;;;;12.25;6.75;;;4.10;99.90;;;;;;5035679;28;20041;-86
2022/04/05 09:40:41;;;;;;;11.70;6.65;;;4.00;99.90;;;;;;5043971;28;20060;-86
2022/04/05 09:43:12;;;;;;;13.27;8.20;;;4.20;99.90;;;;;;5017041;28;20037;-85
2022/04/05 09:46:01;;;;;;;16.25;8.80;;;4.30;99.90;;;;;;5029591;28;20087;-86
2022/04/05 09:48:28;;;;;;;13.95;8.32;;;4.60;99.90;;;;;;5041076;28;20029;-87
2022/04/05 09:51:07;;;;;;;13.93;7.95;;;4.70;99.90;;;;;;5028813;28;20029;-86
2022/04/05 09:53:39;;;;;;;12.63;7.63;;;4.70;99.90;;;;;;5047781;28;20402;-86
2022/04/05 09:56:07;;;;;;;14.25;8.07;;;4.70;99.90;;;;;;5034787;28;20037;-86
2022/04/05 09:58:34;;;;;;;12.77;7.35;;;4.80;99.90;;;;;;5018068;28;20026;-85
2022/04/05 10:01:05;;;;;;;11.68;7.00;;;4.90;99.90;;;;;;5046214;28;20033;-85
2022/04/05 10:03:30;;;;;;;;;;;5.00;99.90;;;;;;5042999;28;20029;-87
2022/04/05 10:05:56;;;;;;;14.07;6.32;;;5.30;99.90;;;;;;5051985;28;20272;-85
2022/04/05 10:08:23;;;;;;;11.25;6.13;;;5.50;99.90;;;;;;5033836;28;20163;-86
2022/04/05 10:10:49;;;;;;;11.05;7.15;;;5.20;99.90;;;;;;5050129;28;20025;-84
2022/04/05 10:13:15;;;;;;;20.80;11.15;;;5.10;99.90;;;;;;5046518;28;20033;-86
2022/04/05 10:15:47;;;;;;;11.85;7.13;;;5.20;99.90;;;;;;5021681;28;20374;-87
2022/04/05 10:18:15;;;;;;;8.23;5.43;;;5.30;99.90;;;;;;5040749;28;20041;-86
2022/04/05 10:20:41;;;;;;;11.95;6.32;;;5.30;99.90;;;;;;5044488;28;20025;-87
2022/04/05 10:23:08;;;;;;;10.95;6.95;;;5.40;99.90;;;;;;5042675;28;20061;-86
2022/04/05 10:25:34;;;;;;;11.85;6.32;;;5.50;99.90;;;;;;5050894;28;20098;-84
2022/04/05 10:28:00;;;;;;;10.35;6.13;;;5.50;99.90;;;;;;5037689;28;20051;-85
2022/04/05 10:30:46;;;;;;;13.15;5.82;;;5.50;99.90;;;;;;5035991;28;20029;-86
2022/04/05 10:33:23;;;;;;;11.90;6.10;;;5.90;99.90;;;;;;5027083;28;20473;-86
2022/04/05 10:35:53;;;;;;;9.02;5.35;;;5.80;99.90;;;;;;5036030;28;20076;-84
2022/04/05 10:38:20;;;;;;;;;;;5.80;99.40;;;;;;5036379;28;20025;-85
2022/04/05 10:41:11;;;;;;;10.18;5.53;;;5.80;99.90;;;;;;5046051;28;19926;-86
2022/04/05 10:43:38;;;;;;;12.57;5.40;;;6.00;99.90;;;;;;5056901;28;20052;-85
2022/04/05 10:46:05;;;;;;;11.32;6.22;;;5.90;99.90;;;;;;5052364;28;20022;-86
2022/04/05 10:48:31;;;;;;;9.05;5.78;;;5.90;99.90;;;;;;5050283;28;20102;-86
2022/04/05 10:51:00;;;;;;;13.02;7.15;;;6.20;99.90;;;;;;5039758;28;20048;-86
2022/04/05 10:53:39;;;;;;;10.63;5.22;;;6.10;99.90;;;;;;5051368;28;20104;-86
2022/04/05 10:56:09;;;;;;;11.38;5.82;;;6.30;99.30;;;;;;5044065;28;20058;-86
2022/04/05 10:58:39;;;;;;;7.82;5.35;;;6.40;98.80;;;;;;5051748;28;20116;-86
2022/04/05 11:01:12;;;;;;;7.82;4.53;;;6.30;98.20;;;;;;5035484;28;20049;-86
2022/04/05 11:03:38;;;;;;;8.52;4.68;;;6.50;96.40;;;;;;5030351;28;20037;-85
2022/04/05 11:06:04;;;;;;;10.52;5.30;;;6.80;99.90;;;;;;5036209;28;20030;-86
2022/04/05 11:08:31;;;;;;;8.32;4.65;;;6.70;98.50;;;;;;5038605;28;20220;-86
2022/04/05 11:11:02;;;;;;;11.32;4.38;;;6.90;95.30;;;;;;5037815;28;20129;-86
2022/04/05 11:13:32;;;;;;;10.38;5.43;;;7.00;93.20;;;;;;5018871;28;20519;-86
2022/04/05 11:15:59;;;;;;;10.23;5.43;;;7.20;96.70;;;;;;5038625;28;20052;-84
2022/04/05 11:18:33;;;;;;;9.95;5.60;;;7.80;95.30;;;;;;5032344;28;20024;-85
2022/04/05 11:21:00;;;;;;;8.50;5.35;;;7.90;90.00;;;;;;5026735;28;20115;-85
2022/04/05 11:23:47;;;;;;;7.18;4.80;;;8.00;92.00;;;;;;5015106;28;20021;-84
2022/04/05 11:26:29;;;;;;;7.38;5.22;;;7.80;84.10;;;;;;5041014;28;20026;-85
2022/04/05 11:28:57;;;;;;;9.73;5.78;;;7.50;84.10;;;;;;5037522;28;20044;-86
2022/04/05 11:31:32;;;;;;;9.57;6.25;;;7.20;95.60;;;;;;5028613;28;20030;-84
2022/04/05 11:33:58;;;;;;;9.15;5.30;;;7.10;93.20;;;;;;5034610;28;20401;-85
2022/04/05 11:36:25;;;;;;;12.57;5.22;;;6.90;90.60;;;;;;5062236;28;20431;-84
2022/04/05 11:38:58;;;;;;;12.73;6.28;;;6.90;93.90;;;;;;5038046;28;20029;-85
2022/04/05 11:41:25;;;;;;;7.18;4.45;;;6.80;91.90;;;;;;5048121;28;20446;-85
2022/04/05 11:43:54;;;;;;;8.60;5.25;;;6.90;92.80;;;;;;5030102;28;20088;-85
2022/04/05 11:46:30;;;;;;;7.60;4.75;;;7.00;90.80;;;;;;5028540;28;20444;-86
2022/04/05 11:48:58;;;;;;;8.00;5.43;;;6.90;91.10;;;;;;5028261;28;20030;-86
2022/04/05 11:51:30;;;;;;;7.75;4.65;;;7.20;93.10;;;;;;5032714;28;20029;-85
2022/04/05 11:54:24;;;;;;;8.02;4.70;;;6.90;94.50;;;;;;5019479;28;20032;-86
2022/04/05 11:56:52;;;;;;;7.22;4.78;;;6.90;91.40;;;;;;5037833;28;20835;-84
2022/04/05 11:59:24;;;;;;;6.50;4.18;;;7.20;94.10;;;;;;5036923;28;20036;-85
2022/04/05 12:01:50;;;;;;;8.23;4.97;;;7.10;91.30;;;;;;5045969;28;20124;-85
2022/04/05 12:04:20;;;;;;;10.07;5.05;;;7.30;94.20;;;;;;5047132;28;20034;-86
2022/04/05 12:06:47;;;;;;;7.57;4.60;;;7.50;90.90;;;;;;5031286;28;20057;-86
2022/04/05 12:09:17;;;;;;;7.20;4.55;;;7.90;87.10;;;;;;5038675;28;20075;-87
2022/04/05 12:11:49;;;;;;;9.85;5.30;;;7.80;83.40;;;;;;5026764;28;20439;-86
2022/04/05 12:14:17;;;;;;;6.40;4.60;;;8.00;87.20;;;;;;5032848;28;20496;-86
2022/04/05 12:16:53;;;;;;;8.55;5.70;;;8.00;83.30;;;;;;5017109;28;20481;-86
2022/04/05 12:19:28;;;;;;;7.13;4.55;;;8.00;82.80;;;;;;5031724;28;20085;-87
2022/04/05 12:21:57;;;;;;;7.97;5.13;;;8.20;79.80;;;;;;5014587;28;20048;-85
2022/04/05 12:24:24;;;;;;;6.97;4.85;;;8.60;79.40;;;;;;5024449;28;20035;-86
2022/04/05 12:26:51;;;;;;;8.30;5.80;;;9.20;75.00;;;;;;5035373;28;20123;-85
2022/04/05 12:29:16;;;;;;;10.55;5.90;;;9.60;74.60;;;;;;5039003;28;20048;-83
2022/04/05 12:31:42;;;;;;;7.68;4.95;;;9.50;71.40;;;;;;5013730;28;20057;-87
2022/04/05 12:34:13;;;;;;;7.03;4.85;;;9.80;71.70;;;;;;5031990;28;20048;-88
2022/04/05 12:36:56;;;;;;;8.52;4.75;;;9.70;70.00;;;;;;5034241;28;20029;-88
2022/04/05 12:39:27;;;;;;;10.40;5.90;;;10.30;70.20;;;;;;5033186;28;20074;-88
2022/04/05 12:41:57;;;;;;;9.75;5.15;;;10.40;64.90;;;;;;5039293;28;20044;-88
2022/04/05 12:44:26;;;;;;;10.57;4.50;;;10.30;66.00;;;;;;5026442;28;20477;-87
2022/04/05 12:46:54;;;;;;;10.57;4.80;;;10.20;65.30;;;;;;5034426;28;20128;-88
2022/04/05 12:49:34;;;;;;;8.98;5.20;;;10.00;64.80;;;;;;5038986;28;20056;-89
2022/04/05 12:52:09;;;;;;;7.93;5.05;;;9.70;66.10;;;;;;5034496;28;20085;-88